createdAt,value
2022-11-19T00:02:35.159Z,8.00
2022-11-19T00:06:38.023Z,8.10
2022-11-19T00:10:42.142Z,8.10
2022-11-19T00:14:44.837Z,8.20
2022-11-19T00:18:47.522Z,8.00
2022-11-19T00:22:52.728Z,7.90
2022-11-19T00:26:56.997Z,7.80
2022-11-19T00:31:05.101Z,8.00
2022-11-19T00:35:08.365Z,8.00
2022-11-19T00:39:11.110Z,8.20
2022-11-19T00:43:32.617Z,7.90
2022-11-19T00:47:35.301Z,8.20
2022-11-19T00:51:38.009Z,8.10
2022-11-19T00:55:40.760Z,8.20
2022-11-19T00:59:44.810Z,8.10
2022-11-19T01:03:48.094Z,8.10
2022-11-19T01:07:50.810Z,8.10
2022-11-19T01:11:53.569Z,8.10
2022-11-19T01:15:57.697Z,8.10
2022-11-19T01:20:00.579Z,8.00
2022-11-19T01:24:04.736Z,8.00
2022-11-19T01:28:07.588Z,8.00
2022-11-19T01:32:11.627Z,8.00
2022-11-19T01:36:16.248Z,8.10
2022-11-19T01:40:18.985Z,8.00
2022-11-19T01:44:57.249Z,8.10
2022-11-19T01:49:04.852Z,8.10
2022-11-19T01:53:09.307Z,8.20
2022-11-19T01:57:15.654Z,8.10
2022-11-19T02:01:20.445Z,8.10
2022-11-19T02:05:24.656Z,8.00
2022-11-19T02:09:29.073Z,8.10
2022-11-19T02:13:36.893Z,8.10
2022-11-19T02:18:06.322Z,8.10
2022-11-19T02:22:25.228Z,8.20
2022-11-19T02:27:06.458Z,8.20
2022-11-19T02:31:16.391Z,8.10
2022-11-19T02:35:27.869Z,8.10
2022-11-19T02:39:37.817Z,7.90
2022-11-19T02:43:42.722Z,7.90
2022-11-19T02:47:49.015Z,7.70
2022-11-19T02:51:51.769Z,7.70
2022-11-19T02:56:12.688Z,7.80
2022-11-19T03:00:33.437Z,7.70
2022-11-19T03:04:37.477Z,7.70
2022-11-19T03:08:40.455Z,7.60
2022-11-19T03:12:54.374Z,7.50
2022-11-19T03:17:01.127Z,7.60
2022-11-19T03:21:08.534Z,7.50
2022-11-19T03:25:17.065Z,7.50
2022-11-19T03:29:21.559Z,7.60
2022-11-19T03:33:27.473Z,7.70
2022-11-19T03:37:34.942Z,7.60
2022-11-19T03:41:41.806Z,7.50
2022-11-19T03:45:46.378Z,7.50
2022-11-19T03:49:53.719Z,7.60
2022-11-19T03:53:57.753Z,7.70
2022-11-19T03:58:03.997Z,7.70
2022-11-19T04:02:08.723Z,7.40
2022-11-19T04:06:11.526Z,7.60
2022-11-19T04:10:16.564Z,7.50
2022-11-19T04:14:19.271Z,7.60
2022-11-19T04:18:22.102Z,7.50
2022-11-19T04:22:24.857Z,7.60
2022-11-19T04:26:28.892Z,7.50
2022-11-19T04:30:31.667Z,7.40
2022-11-19T04:34:34.360Z,7.40
2022-11-19T04:38:37.032Z,7.50
2022-11-19T04:42:41.118Z,7.30
2022-11-19T04:46:43.867Z,7.20
2022-11-19T04:50:46.644Z,7.30
2022-11-19T04:54:49.350Z,7.30
2022-11-19T04:58:53.576Z,7.10
2022-11-19T05:02:56.287Z,7.10
2022-11-19T05:06:59.050Z,7.10
2022-11-19T05:11:01.825Z,7.20
2022-11-19T05:15:06.601Z,7.10
2022-11-19T05:19:09.879Z,7.20
2022-11-19T05:23:12.668Z,7.30
2022-11-19T05:27:15.391Z,7.20
2022-11-19T05:31:19.455Z,7.20
2022-11-19T05:35:22.169Z,7.30
2022-11-19T05:39:25.100Z,7.30
2022-11-19T05:43:28.075Z,7.20
2022-11-19T05:47:32.161Z,7.20
2022-11-19T05:51:34.838Z,7.30
2022-11-19T05:55:37.613Z,7.40
2022-11-19T05:59:43.833Z,7.30
2022-11-19T06:03:48.269Z,7.40
2022-11-19T06:07:51.004Z,7.30
2022-11-19T06:11:53.716Z,7.40
2022-11-19T06:15:56.512Z,7.40
2022-11-19T06:20:00.539Z,7.30
2022-11-19T06:24:03.340Z,7.40
2022-11-19T06:28:06.251Z,7.20
2022-11-19T06:32:08.945Z,7.30
2022-11-19T06:36:13.491Z,7.10
2022-11-19T06:40:16.319Z,7.20
2022-11-19T06:44:18.992Z,7.20
2022-11-19T06:48:21.785Z,7.10
2022-11-19T06:52:26.211Z,7.20
2022-11-19T06:56:28.893Z,7.20
2022-11-19T07:00:31.879Z,7.20
2022-11-19T07:04:34.610Z,7.20
2022-11-19T07:08:39.376Z,7.30
2022-11-19T07:12:42.129Z,7.30
2022-11-19T07:16:45.110Z,7.50
2022-11-19T07:20:47.873Z,7.50
2022-11-19T07:24:51.943Z,7.60
2022-11-19T07:28:54.757Z,7.70
2022-11-19T07:32:58.145Z,7.80
2022-11-19T07:37:00.884Z,7.70
2022-11-19T07:41:29.008Z,7.80
2022-11-19T07:45:31.717Z,7.90
2022-11-19T07:49:34.437Z,7.90
2022-11-19T07:53:37.266Z,7.80
2022-11-19T07:57:41.351Z,7.80
2022-11-19T08:01:44.519Z,8.00
2022-11-19T08:05:47.461Z,8.10
2022-11-19T08:09:50.163Z,8.30
2022-11-19T08:13:54.597Z,8.50
2022-11-19T08:18:16.064Z,8.60
2022-11-19T08:22:18.889Z,8.70
2022-11-19T08:26:21.593Z,8.80
2022-11-19T08:30:25.672Z,8.90
2022-11-19T08:34:28.516Z,9.10
2022-11-19T08:38:35.818Z,9.20
2022-11-19T08:42:58.536Z,9.20
2022-11-19T08:47:02.643Z,9.30
2022-11-19T08:51:05.601Z,9.30
2022-11-19T08:55:09.254Z,9.50
2022-11-19T08:59:11.981Z,9.40
2022-11-19T09:03:16.021Z,9.50
2022-11-19T09:07:18.771Z,9.50
2022-11-19T09:11:23.313Z,9.50
2022-11-19T09:15:26.021Z,9.50
2022-11-19T09:19:30.052Z,9.50
2022-11-19T09:23:32.796Z,9.50
2022-11-19T09:27:35.577Z,9.70
2022-11-19T09:31:38.297Z,10.10
2022-11-19T09:35:42.874Z,10.30
2022-11-19T09:39:45.629Z,11.40
2022-11-19T09:43:57.896Z,11.50
2022-11-19T09:48:18.637Z,11.00
2022-11-19T09:52:25.960Z,10.70
2022-11-19T09:56:33.986Z,10.60
2022-11-19T10:00:37.232Z,10.50
2022-11-19T10:04:39.950Z,10.40
2022-11-19T10:09:02.880Z,10.40
2022-11-19T10:13:39.976Z,10.30
2022-11-19T10:17:55.652Z,10.20
2022-11-19T10:22:05.629Z,10.10
2022-11-19T10:26:14.041Z,10.20
2022-11-19T10:30:20.089Z,10.00
2022-11-19T10:34:27.583Z,10.00
2022-11-19T10:38:34.796Z,10.10
2022-11-19T10:42:42.014Z,10.00
2022-11-19T10:46:46.147Z,9.90
2022-11-19T10:50:49.036Z,10.00
2022-11-19T10:54:54.830Z,9.90
2022-11-19T10:59:02.701Z,9.80
2022-11-19T11:03:06.997Z,9.70
2022-11-19T11:07:10.819Z,9.80
2022-11-19T11:11:13.910Z,9.70
2022-11-19T11:15:21.756Z,9.70
2022-11-19T11:19:24.698Z,9.80
2022-11-19T11:23:29.613Z,9.90
2022-11-19T11:27:34.012Z,10.00
2022-11-19T11:31:40.707Z,10.00
2022-11-19T11:35:46.459Z,9.90
2022-11-19T11:39:55.046Z,10.00
2022-11-19T11:44:02.871Z,10.30
2022-11-19T11:48:09.225Z,10.60
2022-11-19T11:52:19.023Z,10.90
2022-11-19T11:56:22.389Z,11.20
2022-11-19T12:00:36.923Z,11.40
2022-11-19T12:04:40.981Z,11.40
2022-11-19T12:08:51.378Z,11.30
2022-11-19T12:13:11.255Z,11.30
2022-11-19T12:17:37.490Z,11.30
2022-11-19T12:21:51.151Z,11.20
2022-11-19T12:26:04.113Z,11.40
2022-11-19T12:30:12.513Z,13.00
2022-11-19T12:34:39.996Z,14.50
2022-11-19T12:38:54.850Z,16.00
2022-11-19T12:43:10.948Z,16.50
2022-11-19T12:47:30.137Z,15.70
2022-11-19T12:51:42.252Z,14.90
2022-11-19T12:55:57.165Z,14.00
2022-11-19T13:00:15.978Z,13.30
2022-11-19T13:04:24.580Z,12.80
2022-11-19T13:08:32.190Z,12.50
2022-11-19T13:12:40.509Z,12.40
2022-11-19T13:16:44.437Z,12.50
2022-11-19T13:20:51.040Z,12.50
2022-11-19T13:24:58.309Z,12.40
2022-11-19T13:29:15.109Z,12.70
2022-11-19T13:33:21.138Z,13.40
2022-11-19T13:37:35.397Z,13.90
2022-11-19T13:42:03.152Z,14.20
2022-11-19T13:46:20.621Z,14.50
2022-11-19T13:50:28.121Z,14.80
2022-11-19T13:54:35.940Z,14.90
2022-11-19T13:58:44.760Z,14.60
2022-11-19T14:03:07.042Z,13.90
2022-11-19T14:07:30.719Z,13.40
2022-11-19T14:11:58.160Z,13.10
2022-11-19T14:16:24.081Z,12.80
2022-11-19T14:20:56.190Z,12.60
2022-11-19T14:25:18.891Z,12.40
2022-11-19T14:30:09.474Z,12.40
2022-11-19T14:34:27.085Z,12.70
2022-11-19T14:38:44.286Z,12.70
2022-11-19T14:43:44.145Z,12.40
2022-11-19T14:47:48.856Z,12.20
2022-11-19T14:51:55.052Z,12.00
2022-11-19T14:56:01.617Z,11.80
2022-11-19T15:00:05.742Z,11.60
2022-11-19T15:04:11.982Z,11.40
2022-11-19T15:08:46.945Z,11.30
2022-11-19T15:13:03.700Z,11.10
2022-11-19T15:17:07.923Z,11.00
2022-11-19T15:21:26.000Z,10.90
2022-11-19T15:25:40.110Z,10.80
2022-11-19T15:30:04.351Z,10.70
2022-11-19T15:35:04.076Z,10.80
2022-11-19T15:39:14.810Z,10.60
2022-11-19T15:43:24.919Z,10.50
2022-11-19T15:47:35.766Z,10.40
2022-11-19T15:51:56.643Z,10.40
2022-11-19T15:56:03.148Z,10.40
2022-11-19T16:00:06.274Z,10.40
2022-11-19T16:04:16.561Z,10.30
2022-11-19T16:08:19.328Z,10.30
2022-11-19T16:12:41.173Z,10.40
2022-11-19T16:17:01.461Z,10.20
2022-11-19T16:21:05.780Z,10.30
2022-11-19T16:25:13.451Z,10.20
2022-11-19T16:29:18.626Z,10.10
2022-11-19T16:33:23.834Z,10.00
2022-11-19T16:37:28.018Z,10.10
2022-11-19T16:41:48.115Z,10.10
2022-11-19T16:45:51.088Z,10.10
2022-11-19T16:50:02.868Z,9.90
2022-11-19T16:54:09.291Z,9.90
2022-11-19T16:58:15.515Z,9.90
2022-11-19T17:02:21.167Z,9.80
2022-11-19T17:06:25.705Z,9.70
2022-11-19T17:10:31.526Z,9.70
2022-11-19T17:14:49.673Z,9.80
2022-11-19T17:18:52.421Z,9.80
2022-11-19T17:22:55.406Z,9.70
2022-11-19T17:26:59.602Z,9.70
2022-11-19T17:31:05.081Z,9.70
2022-11-19T17:35:09.702Z,9.70
2022-11-19T17:39:13.601Z,9.70
2022-11-19T17:43:42.750Z,9.70
2022-11-19T17:47:47.056Z,9.70
2022-11-19T17:51:49.770Z,9.60
2022-11-19T17:55:56.374Z,9.50
2022-11-19T18:00:00.429Z,9.50
2022-11-19T18:04:03.271Z,9.50
2022-11-19T18:08:06.222Z,9.40
2022-11-19T18:12:15.178Z,9.40
2022-11-19T18:16:20.824Z,9.30
2022-11-19T18:20:23.548Z,9.30
2022-11-19T18:24:26.549Z,9.30
2022-11-19T18:28:29.483Z,9.20
2022-11-19T18:32:33.602Z,9.20
2022-11-19T18:36:36.375Z,9.20
2022-11-19T18:40:39.180Z,9.20
2022-11-19T18:44:43.465Z,9.30
2022-11-19T18:48:47.701Z,9.20
2022-11-19T18:52:50.465Z,9.20
2022-11-19T18:56:53.385Z,9.20
2022-11-19T19:00:56.143Z,9.30
2022-11-19T19:05:00.233Z,9.40
2022-11-19T19:09:03.132Z,9.40
2022-11-19T19:13:05.841Z,9.10
2022-11-19T19:17:09.290Z,9.00
2022-11-19T19:21:15.517Z,9.10
2022-11-19T19:25:19.036Z,9.00
2022-11-19T19:29:22.254Z,9.20
2022-11-19T19:33:25.209Z,8.90
2022-11-19T19:37:29.685Z,9.00
2022-11-19T19:41:33.376Z,8.90
2022-11-19T19:45:36.213Z,8.80
2022-11-19T19:49:39.508Z,8.80
2022-11-19T19:53:44.281Z,8.80
2022-11-19T19:57:47.175Z,9.00
2022-11-19T20:01:53.844Z,8.80
2022-11-19T20:05:56.718Z,8.80
2022-11-19T20:10:00.950Z,8.80
2022-11-19T20:14:03.881Z,8.80
2022-11-19T20:18:06.801Z,8.80
2022-11-19T20:22:10.166Z,8.80
2022-11-19T20:26:16.323Z,8.60
2022-11-19T20:30:19.439Z,8.70
2022-11-19T20:34:22.304Z,8.70
2022-11-19T20:38:25.101Z,8.70
2022-11-19T20:42:46.593Z,8.60
2022-11-19T20:46:50.881Z,8.80
2022-11-19T20:50:58.621Z,8.80
2022-11-19T20:55:06.437Z,8.70
2022-11-19T20:59:12.184Z,8.80
2022-11-19T21:03:15.036Z,8.60
2022-11-19T21:07:17.783Z,8.60
2022-11-19T21:11:20.853Z,8.80
2022-11-19T21:15:24.861Z,8.70
2022-11-19T21:19:27.574Z,8.80
2022-11-19T21:23:30.800Z,8.70
2022-11-19T21:27:33.513Z,8.80
2022-11-19T21:31:42.231Z,8.80
2022-11-19T21:35:45.110Z,8.70
2022-11-19T21:39:47.841Z,8.50
2022-11-19T21:43:51.112Z,8.60
2022-11-19T21:47:56.259Z,8.60
2022-11-19T21:51:59.101Z,8.50
2022-11-19T21:56:01.985Z,8.70
2022-11-19T22:00:06.010Z,8.50
2022-11-19T22:04:16.995Z,8.50
2022-11-19T22:08:19.714Z,8.50
2022-11-19T22:12:22.418Z,8.20
2022-11-19T22:16:25.322Z,8.20
2022-11-19T22:20:29.426Z,8.10
2022-11-19T22:24:32.509Z,8.10
2022-11-19T22:28:35.472Z,8.00
2022-11-19T22:32:38.277Z,8.00
2022-11-19T22:36:42.810Z,7.90
2022-11-19T22:40:45.708Z,8.00
2022-11-19T22:44:48.443Z,7.90
2022-11-19T22:48:52.557Z,7.80
2022-11-19T22:52:56.633Z,7.90
2022-11-19T22:56:59.423Z,7.80
2022-11-19T23:01:02.167Z,7.80
2022-11-19T23:05:05.395Z,7.90
2022-11-19T23:09:10.019Z,8.00
2022-11-19T23:13:30.663Z,7.90
2022-11-19T23:17:33.384Z,8.20
2022-11-19T23:21:36.392Z,8.00
2022-11-19T23:25:40.454Z,8.10
2022-11-19T23:29:43.191Z,8.00
2022-11-19T23:33:46.437Z,8.10
2022-11-19T23:37:49.173Z,8.30
2022-11-19T23:41:53.228Z,8.10
2022-11-19T23:45:57.602Z,8.20
2022-11-19T23:50:00.311Z,8.00
2022-11-19T23:54:03.525Z,8.10
2022-11-19T23:58:07.638Z,8.10
